createdAt,value
2018-03-24T00:00:22.512Z,11.40
2018-03-24T00:02:50.279Z,15.30
2018-03-24T00:05:18.041Z,17.43
2018-03-24T00:07:45.703Z,15.67
2018-03-24T00:10:13.464Z,12.73
2018-03-24T00:12:41.084Z,12.97
2018-03-24T00:15:09.728Z,13.80
2018-03-24T00:17:37.376Z,14.07
2018-03-24T00:20:05.039Z,13.83
2018-03-24T00:22:32.694Z,14.33
2018-03-24T00:25:00.357Z,13.90
2018-03-24T00:27:28.223Z,13.40
2018-03-24T00:29:55.988Z,13.57
2018-03-24T00:32:23.651Z,13.80
2018-03-24T00:34:51.325Z,15.17
2018-03-24T00:37:18.981Z,12.17
2018-03-24T00:39:46.581Z,13.10
2018-03-24T00:42:14.202Z,12.43
2018-03-24T00:44:41.972Z,14.17
2018-03-24T00:47:09.728Z,11.67
2018-03-24T00:49:37.435Z,11.43
2018-03-24T00:52:05.048Z,10.37
2018-03-24T00:54:32.709Z,12.17
2018-03-24T00:57:00.472Z,9.30
2018-03-24T00:59:28.239Z,10.60
2018-03-24T01:01:55.906Z,15.00
2018-03-24T01:04:23.765Z,13.73
2018-03-24T01:06:51.533Z,12.30
2018-03-24T01:09:19.192Z,11.13
2018-03-24T01:11:46.858Z,10.40
2018-03-24T01:14:15.334Z,12.17
2018-03-24T01:16:42.893Z,12.10
2018-03-24T01:19:10.555Z,10.97
2018-03-24T01:21:38.114Z,9.03
2018-03-24T01:24:05.776Z,9.67
2018-03-24T01:26:33.336Z,8.73
2018-03-24T01:29:00.998Z,10.87
2018-03-24T01:31:29.581Z,10.93
2018-03-24T01:33:57.141Z,9.77
2018-03-24T01:36:24.914Z,11.30
2018-03-24T01:38:52.465Z,12.47
2018-03-24T01:41:20.125Z,11.43
2018-03-24T01:43:47.685Z,12.03
2018-03-24T01:46:15.349Z,10.30
2018-03-24T01:48:43.009Z,13.20
2018-03-24T01:51:10.619Z,15.03
2018-03-24T01:53:50.207Z,15.57
2018-03-24T01:56:17.872Z,14.17
2018-03-24T01:58:45.545Z,14.50
2018-03-24T02:01:13.194Z,13.97
2018-03-24T02:03:40.958Z,13.87
2018-03-24T02:06:08.634Z,17.03
2018-03-24T02:08:36.285Z,15.23
2018-03-24T02:11:04.045Z,16.27
2018-03-24T02:13:31.605Z,13.33
2018-03-24T02:15:59.267Z,13.47
2018-03-24T02:18:26.842Z,14.13
2018-03-24T02:20:54.449Z,14.43
2018-03-24T02:23:22.047Z,13.07
2018-03-24T02:25:49.860Z,15.03
2018-03-24T02:28:17.594Z,12.30
2018-03-24T02:30:45.257Z,12.50
2018-03-24T02:33:12.846Z,13.90
2018-03-24T02:35:40.581Z,11.20
2018-03-24T02:38:08.276Z,12.40
2018-03-24T02:40:36.393Z,14.07
2018-03-24T02:43:04.108Z,10.30
2018-03-24T02:45:31.743Z,11.57
2018-03-24T02:47:59.429Z,11.90
2018-03-24T02:50:27.078Z,12.23
2018-03-24T02:52:54.856Z,11.87
2018-03-24T02:55:22.356Z,12.60
2018-03-24T02:57:49.916Z,13.73
2018-03-24T03:00:17.429Z,14.53
2018-03-24T03:02:45.433Z,11.27
2018-03-24T03:05:12.924Z,12.37
2018-03-24T03:07:40.440Z,12.70
2018-03-24T03:10:07.954Z,14.70
2018-03-24T03:12:35.497Z,13.00
2018-03-24T03:15:02.991Z,14.73
2018-03-24T03:17:30.505Z,12.97
2018-03-24T03:19:57.997Z,11.97
2018-03-24T03:22:26.443Z,12.23
2018-03-24T03:24:54.082Z,14.40
2018-03-24T03:27:21.593Z,11.40
2018-03-24T03:29:49.136Z,11.07
2018-03-24T03:32:18.585Z,12.40
2018-03-24T03:34:46.095Z,13.57
2018-03-24T03:37:13.677Z,13.00
2018-03-24T03:39:41.196Z,11.27
2018-03-24T03:42:08.704Z,13.87
2018-03-24T03:44:36.231Z,15.30
2018-03-24T03:47:03.796Z,16.33
2018-03-24T03:49:31.321Z,175.17
2018-03-24T03:51:58.848Z,189.80
2018-03-24T03:54:26.392Z,244.10
2018-03-24T03:56:53.998Z,221.50
2018-03-24T03:59:21.535Z,121.13
2018-03-24T04:01:49.055Z,130.97
2018-03-24T04:04:16.603Z,96.13
2018-03-24T04:06:44.157Z,235.57
2018-03-24T04:09:11.723Z,163.53
2018-03-24T04:11:39.267Z,231.07
2018-03-24T04:14:06.799Z,118.63
2018-03-24T04:16:34.312Z,114.13
2018-03-24T04:19:01.873Z,104.90
2018-03-24T04:21:29.380Z,113.60
2018-03-24T04:23:56.896Z,104.33
2018-03-24T04:26:24.444Z,84.10
2018-03-24T04:28:51.972Z,101.97
2018-03-24T04:31:19.467Z,111.33
2018-03-24T04:33:47.024Z,143.70
2018-03-24T04:36:14.567Z,246.87
2018-03-24T04:38:42.101Z,164.50
2018-03-24T04:41:09.600Z,172.40
2018-03-24T04:43:37.123Z,158.67
2018-03-24T04:46:04.615Z,164.00
2018-03-24T04:48:32.177Z,187.87
2018-03-24T04:50:59.760Z,172.50
2018-03-24T04:53:27.303Z,197.77
2018-03-24T04:55:54.920Z,116.07
2018-03-24T04:58:22.420Z,187.60
2018-03-24T05:00:49.944Z,259.73
2018-03-24T05:03:17.556Z,133.07
2018-03-24T05:05:45.116Z,114.23
2018-03-24T05:08:12.640Z,200.30
2018-03-24T05:10:40.158Z,202.47
2018-03-24T05:13:07.672Z,110.07
2018-03-24T05:15:35.200Z,275.90
2018-03-24T05:18:02.695Z,108.13
2018-03-24T05:20:30.252Z,172.93
2018-03-24T05:22:57.780Z,156.17
2018-03-24T05:25:25.307Z,165.97
2018-03-24T05:27:52.804Z,112.80
2018-03-24T05:30:20.368Z,341.80
2018-03-24T05:32:47.870Z,285.03
2018-03-24T05:35:15.399Z,358.27
2018-03-24T05:37:42.891Z,235.27
2018-03-24T05:40:10.421Z,342.63
2018-03-24T05:42:37.979Z,190.93
2018-03-24T05:45:05.540Z,279.50
2018-03-24T05:47:33.043Z,356.17
2018-03-24T05:50:00.560Z,297.53
2018-03-24T05:52:28.061Z,264.40
2018-03-24T05:54:55.631Z,155.40
2018-03-24T05:57:23.191Z,148.83
2018-03-24T05:59:50.697Z,194.63
2018-03-24T06:02:18.268Z,75.40
2018-03-24T06:04:45.764Z,84.80
2018-03-24T06:07:13.307Z,131.87
2018-03-24T06:09:40.803Z,260.13
2018-03-24T06:12:08.329Z,150.53
2018-03-24T06:14:35.824Z,344.50
2018-03-24T06:17:03.389Z,199.53
2018-03-24T06:19:30.968Z,213.97
2018-03-24T06:21:58.489Z,98.90
2018-03-24T06:24:25.992Z,136.30
2018-03-24T06:26:53.507Z,178.17
2018-03-24T06:29:21.020Z,113.20
2018-03-24T06:31:52.009Z,71.47
2018-03-24T06:34:19.517Z,173.33
2018-03-24T06:36:47.328Z,219.77
2018-03-24T06:39:14.855Z,192.83
2018-03-24T06:41:42.396Z,120.90
2018-03-24T06:44:09.951Z,111.83
2018-03-24T06:46:37.502Z,50.50
2018-03-24T06:49:05.072Z,121.37
2018-03-24T06:51:32.589Z,67.13
2018-03-24T06:54:00.089Z,166.93
2018-03-24T06:56:27.657Z,286.73
2018-03-24T06:58:55.188Z,166.93
2018-03-24T07:01:22.708Z,172.57
2018-03-24T07:03:50.212Z,195.07
2018-03-24T07:06:17.756Z,118.33
2018-03-24T07:08:45.334Z,98.27
2018-03-24T07:11:12.840Z,159.00
2018-03-24T07:13:40.462Z,53.10
2018-03-24T07:16:07.951Z,58.17
2018-03-24T07:18:35.471Z,133.70
2018-03-24T07:21:02.980Z,76.20
2018-03-24T07:23:30.598Z,61.60
2018-03-24T07:25:58.156Z,83.97
2018-03-24T07:28:25.673Z,89.70
2018-03-24T07:30:53.167Z,95.67
2018-03-24T07:33:20.691Z,64.57
2018-03-24T07:35:48.266Z,54.80
2018-03-24T07:38:15.851Z,60.83
2018-03-24T07:40:43.344Z,59.33
2018-03-24T07:43:10.864Z,82.13
2018-03-24T07:45:38.362Z,40.43
2018-03-24T07:48:05.883Z,40.67
2018-03-24T07:50:33.388Z,52.70
2018-03-24T07:53:00.904Z,37.03
2018-03-24T07:55:28.481Z,30.40
2018-03-24T07:57:56.235Z,36.70
2018-03-24T08:00:23.723Z,39.13
2018-03-24T08:02:51.244Z,39.70
2018-03-24T08:05:18.744Z,47.57
2018-03-24T08:07:46.368Z,36.43
2018-03-24T08:10:13.945Z,41.83
2018-03-24T08:12:41.588Z,31.27
2018-03-24T08:15:09.160Z,33.73
2018-03-24T08:17:36.699Z,33.57
2018-03-24T08:20:04.188Z,32.43
2018-03-24T08:22:31.731Z,36.03
2018-03-24T08:24:59.223Z,34.37
2018-03-24T08:27:30.091Z,43.90
2018-03-24T08:29:57.783Z,35.70
2018-03-24T08:32:25.294Z,39.10
2018-03-24T08:34:52.857Z,33.00
2018-03-24T08:37:20.366Z,43.30
2018-03-24T08:39:47.920Z,34.17
2018-03-24T08:42:15.477Z,34.43
2018-03-24T08:44:43.027Z,32.00
2018-03-24T08:47:10.504Z,37.30
2018-03-24T08:49:38.020Z,30.70
2018-03-24T08:52:05.620Z,34.53
2018-03-24T08:54:33.139Z,32.07
2018-03-24T08:57:00.741Z,35.50
2018-03-24T08:59:28.264Z,34.17
2018-03-24T09:01:55.770Z,34.83
2018-03-24T09:04:23.291Z,28.27
2018-03-24T09:06:50.792Z,31.20
2018-03-24T09:09:18.337Z,33.70
2018-03-24T09:11:45.879Z,34.77
2018-03-24T09:14:13.410Z,32.50
2018-03-24T09:16:40.924Z,30.47
2018-03-24T09:19:08.467Z,28.83
2018-03-24T09:21:36.029Z,25.97
2018-03-24T09:24:03.597Z,30.93
2018-03-24T09:26:31.091Z,29.33
2018-03-24T09:28:58.616Z,31.77
2018-03-24T09:31:26.112Z,30.17
2018-03-24T09:33:53.655Z,34.80
2018-03-24T09:36:21.212Z,31.30
2018-03-24T09:38:48.743Z,34.13
2018-03-24T09:41:16.292Z,30.50
2018-03-24T09:43:43.797Z,29.90
2018-03-24T09:46:11.322Z,29.33
2018-03-24T09:48:38.828Z,29.73
2018-03-24T09:51:06.440Z,30.43
2018-03-24T09:53:34.124Z,24.90
2018-03-24T09:56:01.669Z,25.10
2018-03-24T09:58:29.164Z,27.23
2018-03-24T10:00:56.788Z,24.27
2018-03-24T10:03:24.304Z,25.93
2018-03-24T10:05:51.870Z,26.27
2018-03-24T10:08:19.467Z,24.53
2018-03-24T10:10:46.987Z,24.47
2018-03-24T10:13:14.493Z,25.33
2018-03-24T10:15:42.021Z,23.47
2018-03-24T10:18:09.540Z,23.83
2018-03-24T10:24:18.745Z,23.27
2018-03-24T10:26:46.288Z,24.17
2018-03-24T10:29:13.798Z,24.10
2018-03-24T10:31:41.451Z,26.17
2018-03-24T10:34:08.997Z,22.87
2018-03-24T10:36:36.556Z,22.33
2018-03-24T10:39:04.086Z,21.87
2018-03-24T10:41:31.610Z,22.05
2018-03-24T10:43:59.148Z,22.67
2018-03-24T10:46:26.693Z,23.65
2018-03-24T10:48:54.194Z,22.62
2018-03-24T10:51:21.811Z,22.37
2018-03-24T10:53:49.377Z,21.40
2018-03-24T10:56:16.955Z,21.33
2018-03-24T10:58:44.477Z,21.15
2018-03-24T11:01:13.951Z,19.80
2018-03-24T11:03:41.463Z,19.45
2018-03-24T11:06:08.980Z,18.87
2018-03-24T11:08:36.488Z,19.73
2018-03-24T11:11:04.040Z,17.23
2018-03-24T11:13:31.542Z,19.70
2018-03-24T11:15:59.074Z,21.23
2018-03-24T11:18:26.612Z,21.95
2018-03-24T11:20:54.146Z,18.33
2018-03-24T11:23:21.684Z,19.00
2018-03-24T11:25:49.210Z,17.45
2018-03-24T11:28:16.748Z,18.08
2018-03-24T11:30:45.243Z,17.75
2018-03-24T11:33:12.797Z,19.10
2018-03-24T11:35:40.307Z,17.87
2018-03-24T11:38:07.828Z,21.98
2018-03-24T11:40:35.379Z,22.62
2018-03-24T11:43:02.944Z,20.17
2018-03-24T11:45:30.476Z,18.58
2018-03-24T11:47:57.995Z,17.15
2018-03-24T11:50:25.614Z,17.60
2018-03-24T11:52:53.155Z,17.85
2018-03-24T11:55:20.654Z,17.58
2018-03-24T11:57:48.283Z,15.13
2018-03-24T12:00:15.790Z,15.93
2018-03-24T12:02:43.419Z,14.73
2018-03-24T12:05:10.982Z,14.55
2018-03-24T12:07:38.623Z,15.90
2018-03-24T12:10:06.119Z,13.65
2018-03-24T12:12:33.699Z,13.35
2018-03-24T12:15:01.214Z,14.95
2018-03-24T12:17:28.760Z,14.50
2018-03-24T12:19:56.261Z,12.65
2018-03-24T12:22:23.782Z,13.82
2018-03-24T12:24:51.297Z,12.40
2018-03-24T12:27:18.828Z,12.05
2018-03-24T12:29:46.328Z,12.00
2018-03-24T12:32:13.852Z,11.88
2018-03-24T12:34:41.385Z,11.60
2018-03-24T12:37:08.900Z,10.45
2018-03-24T12:39:36.456Z,10.73
2018-03-24T12:42:04.052Z,11.93
2018-03-24T12:44:31.553Z,11.75
2018-03-24T12:46:59.086Z,11.80
2018-03-24T12:49:26.636Z,11.90
2018-03-24T12:51:54.139Z,11.98
2018-03-24T12:54:21.657Z,11.27
2018-03-24T12:56:49.223Z,11.15
2018-03-24T12:59:16.829Z,10.30
2018-03-24T13:01:44.332Z,10.43
2018-03-24T13:04:11.843Z,9.60
2018-03-24T13:06:39.337Z,10.27
2018-03-24T13:09:06.906Z,9.98
2018-03-24T13:11:34.576Z,10.43
2018-03-24T13:14:02.160Z,9.82
2018-03-24T13:16:29.622Z,9.70
2018-03-24T13:18:57.239Z,9.82
2018-03-24T13:21:24.812Z,9.50
2018-03-24T13:23:52.381Z,9.93
2018-03-24T13:26:19.876Z,10.88
2018-03-24T13:28:47.395Z,9.45
2018-03-24T13:31:14.902Z,8.60
2018-03-24T13:33:42.511Z,9.23
2018-03-24T13:36:10.007Z,8.82
2018-03-24T13:38:37.520Z,9.48
2018-03-24T13:41:05.116Z,8.90
2018-03-24T13:43:32.651Z,9.07
2018-03-24T13:46:00.176Z,9.45
2018-03-24T13:48:27.768Z,10.20
2018-03-24T13:50:55.334Z,9.55
2018-03-24T13:53:22.871Z,9.35
2018-03-24T13:55:50.370Z,9.52
2018-03-24T13:58:17.902Z,8.55
2018-03-24T14:00:45.421Z,11.05
2018-03-24T14:03:12.916Z,10.50
2018-03-24T14:05:40.468Z,10.30
2018-03-24T14:08:07.961Z,10.15
2018-03-24T14:10:35.476Z,9.60
2018-03-24T14:13:03.065Z,9.25
2018-03-24T14:15:30.670Z,9.70
2018-03-24T14:17:58.180Z,9.48
2018-03-24T14:20:25.731Z,11.63
2018-03-24T14:22:53.288Z,10.43
2018-03-24T14:25:20.844Z,9.98
2018-03-24T14:27:48.407Z,9.88
2018-03-24T14:30:16.086Z,10.85
2018-03-24T14:32:43.612Z,9.48
2018-03-24T14:35:11.151Z,9.77
2018-03-24T14:37:38.675Z,10.05
2018-03-24T14:40:06.204Z,10.02
2018-03-24T14:42:33.783Z,10.57
2018-03-24T14:45:01.553Z,9.55
2018-03-24T14:47:29.060Z,10.25
2018-03-24T14:49:56.614Z,9.32
2018-03-24T14:52:24.113Z,9.77
2018-03-24T14:54:51.685Z,9.88
2018-03-24T14:57:20.208Z,9.48
2018-03-24T14:59:47.740Z,8.43
2018-03-24T15:02:15.271Z,9.27
2018-03-24T15:04:57.674Z,9.60
2018-03-24T15:13:34.500Z,9.25
2018-03-24T15:16:05.338Z,9.80
2018-03-24T15:18:37.248Z,9.65
2018-03-24T15:21:05.371Z,11.30
2018-03-24T15:26:42.413Z,10.27
2018-03-24T15:29:27.218Z,9.07
2018-03-24T15:32:11.238Z,10.20
2018-03-24T15:34:54.063Z,10.47
2018-03-24T15:37:31.204Z,10.50
2018-03-24T15:40:03.433Z,10.77
2018-03-24T15:42:39.153Z,11.20
2018-03-24T15:45:12.005Z,11.67
2018-03-24T15:47:41.986Z,10.20
2018-03-24T15:50:13.985Z,11.57
2018-03-24T15:58:00.026Z,11.77
2018-03-24T16:03:07.110Z,9.83
2018-03-24T16:05:45.068Z,12.77
2018-03-24T16:08:16.983Z,10.77
2018-03-24T16:10:45.356Z,9.77
2018-03-24T16:13:14.512Z,10.83
2018-03-24T16:16:04.299Z,11.00
2018-03-24T16:18:45.297Z,11.57
2018-03-24T16:21:36.021Z,10.63
2018-03-24T16:24:19.545Z,11.80
2018-03-24T16:27:03.377Z,11.97
2018-03-24T16:29:41.193Z,13.67
2018-03-24T16:32:19.314Z,12.77
2018-03-24T17:11:13.540Z,14.57
2018-03-24T17:13:42.453Z,13.30
2018-03-24T17:16:11.150Z,13.83
2018-03-24T17:18:39.465Z,13.10
2018-03-24T17:21:08.164Z,13.07
2018-03-24T17:23:39.412Z,14.83
2018-03-24T17:26:07.554Z,20.73
2018-03-24T17:28:35.935Z,19.37
2018-03-24T17:31:06.167Z,20.17
2018-03-24T17:33:35.777Z,20.00
2018-03-24T17:36:06.071Z,25.27
2018-03-24T17:38:35.739Z,14.80
2018-03-24T17:41:04.120Z,13.83
2018-03-24T17:43:35.496Z,13.83
2018-03-24T17:46:04.438Z,15.77
2018-03-24T17:48:33.274Z,13.50
2018-03-24T17:51:01.582Z,13.93
2018-03-24T17:53:30.451Z,16.63
2018-03-24T17:56:08.454Z,16.60
2018-03-24T17:58:39.186Z,22.23
2018-03-24T18:01:08.449Z,23.30
2018-03-24T18:03:38.929Z,18.50
2018-03-24T18:06:08.567Z,16.73
2018-03-24T18:08:42.894Z,16.47
2018-03-24T18:11:12.642Z,17.30
2018-03-24T18:13:42.185Z,17.80
2018-03-24T18:16:12.094Z,22.03
2018-03-24T18:18:40.628Z,22.17
2018-03-24T18:21:12.268Z,25.33
2018-03-24T18:23:41.581Z,26.60
2018-03-24T18:26:10.205Z,29.43
2018-03-24T18:28:38.640Z,27.00
2018-03-24T18:31:08.177Z,31.43
2018-03-24T18:33:39.544Z,31.60
2018-03-24T18:36:07.551Z,29.17
2018-03-24T18:38:38.343Z,25.70
2018-03-24T18:41:06.405Z,26.07
2018-03-24T18:43:37.582Z,25.63
2018-03-24T18:46:06.027Z,24.10
2018-03-24T18:48:34.674Z,24.97
2018-03-24T18:51:05.852Z,22.53
2018-03-24T18:53:37.069Z,21.83
2018-03-24T18:56:06.254Z,18.73
2018-03-24T19:01:29.005Z,40.17
2018-03-24T19:04:05.955Z,32.93
2018-03-24T19:06:33.791Z,39.13
2018-03-24T19:09:01.298Z,39.37
2018-03-24T19:11:28.893Z,36.50
2018-03-24T19:13:56.392Z,32.17
2018-03-24T19:16:23.913Z,35.03
2018-03-24T19:18:51.465Z,51.33
2018-03-24T19:21:20.032Z,39.43
2018-03-24T19:23:47.528Z,44.53
2018-03-24T19:26:15.083Z,58.23
2018-03-24T19:28:42.590Z,43.77
2018-03-24T19:31:10.180Z,44.77
2018-03-24T19:33:37.683Z,38.70
2018-03-24T19:36:05.204Z,39.73
2018-03-24T19:38:32.712Z,33.40
2018-03-24T19:41:00.235Z,32.77
2018-03-24T19:43:27.764Z,27.07
2018-03-24T19:45:55.452Z,29.73
2018-03-24T19:48:23.000Z,29.67
2018-03-24T19:50:50.532Z,30.63
2018-03-24T19:53:18.098Z,29.37
2018-03-24T19:55:45.632Z,30.20
2018-03-24T19:58:13.260Z,31.03
2018-03-24T20:00:40.819Z,30.60
2018-03-24T20:03:08.480Z,27.80
2018-03-24T20:05:36.240Z,27.57
2018-03-24T20:08:03.741Z,27.60
2018-03-24T20:10:31.256Z,30.13
2018-03-24T20:13:00.168Z,30.67
2018-03-24T20:15:27.920Z,31.27
2018-03-24T20:17:55.514Z,37.27
2018-03-24T20:20:23.100Z,32.77
2018-03-24T20:22:50.628Z,32.37
2018-03-24T20:25:18.158Z,29.90
2018-03-24T20:27:45.839Z,31.73
2018-03-24T20:30:13.375Z,25.80
2018-03-24T20:32:40.932Z,26.53
2018-03-24T20:35:08.434Z,26.50
2018-03-24T20:37:36.040Z,28.33
2018-03-24T20:40:03.619Z,27.27
2018-03-24T20:42:31.158Z,27.97
2018-03-24T20:44:58.716Z,29.80
2018-03-24T20:47:26.272Z,30.23
2018-03-24T20:49:53.773Z,26.43
2018-03-24T20:52:21.314Z,33.73
2018-03-24T20:54:48.909Z,31.67
2018-03-24T20:57:16.461Z,28.10
2018-03-24T20:59:43.987Z,25.13
2018-03-24T21:02:11.565Z,27.80
2018-03-24T21:04:39.064Z,34.20
2018-03-24T21:07:06.629Z,28.43
2018-03-24T21:09:34.333Z,32.33
2018-03-24T21:12:02.930Z,28.27
2018-03-24T21:14:30.566Z,29.93
2018-03-24T21:16:58.124Z,30.80
2018-03-24T21:19:25.797Z,26.67
2018-03-24T21:21:54.264Z,29.13
2018-03-24T21:24:21.807Z,28.30
2018-03-24T21:26:49.320Z,26.23
2018-03-24T21:29:16.848Z,28.50
2018-03-24T21:31:44.354Z,22.30
2018-03-24T21:34:11.884Z,24.93
2018-03-24T21:36:39.420Z,24.77
2018-03-24T21:39:06.981Z,24.00
2018-03-24T21:41:34.668Z,26.33
2018-03-24T21:44:02.344Z,28.03
2018-03-24T21:46:29.849Z,26.57
2018-03-24T21:48:57.367Z,45.17
2018-03-24T21:51:24.876Z,31.90
2018-03-24T21:53:52.458Z,34.00
2018-03-24T21:56:19.992Z,28.67
2018-03-24T21:58:47.562Z,29.57
2018-03-24T22:01:15.132Z,30.60
2018-03-24T22:03:42.671Z,29.03
2018-03-24T22:06:10.175Z,29.43
2018-03-24T22:08:37.807Z,34.30
2018-03-24T22:11:05.337Z,36.53
2018-03-24T22:13:32.872Z,31.93
2018-03-24T22:16:00.392Z,27.47
2018-03-24T22:18:27.932Z,26.93
2018-03-24T22:20:55.513Z,30.17
2018-03-24T22:23:24.791Z,28.10
2018-03-24T22:25:52.366Z,33.77
2018-03-24T22:28:19.880Z,28.53
2018-03-24T22:30:47.435Z,26.53
2018-03-24T22:33:15.899Z,30.77
2018-03-24T22:35:43.504Z,26.70
2018-03-24T22:38:11.016Z,27.27
2018-03-24T22:40:38.582Z,29.57
2018-03-24T22:43:06.254Z,26.03
2018-03-24T22:45:33.783Z,30.47
2018-03-24T22:48:01.291Z,27.37
2018-03-24T22:50:28.820Z,24.33
2018-03-24T22:52:56.312Z,23.47
2018-03-24T22:55:23.940Z,22.40
2018-03-24T22:57:51.535Z,21.87
2018-03-24T23:00:19.065Z,20.17
2018-03-24T23:02:46.580Z,20.43
2018-03-24T23:05:14.146Z,18.03
2018-03-24T23:07:41.650Z,21.67
2018-03-24T23:12:36.244Z,24.07
2018-03-24T23:15:03.878Z,26.93
2018-03-24T23:17:31.377Z,31.73
2018-03-24T23:19:58.985Z,22.77
2018-03-24T23:22:26.538Z,20.73
2018-03-24T23:24:54.060Z,22.93
2018-03-24T23:27:21.594Z,23.10
2018-03-24T23:29:49.120Z,19.00
2018-03-24T23:32:16.643Z,21.27
2018-03-24T23:34:44.135Z,23.40
2018-03-24T23:37:13.589Z,22.27
2018-03-24T23:39:41.101Z,22.40
2018-03-24T23:42:08.615Z,17.90
2018-03-24T23:44:36.108Z,20.37
2018-03-24T23:47:03.623Z,17.90
2018-03-24T23:49:31.124Z,20.53
2018-03-24T23:51:58.632Z,20.30
2018-03-24T23:54:26.119Z,18.67
2018-03-24T23:56:53.985Z,20.43
2018-03-24T23:59:21.488Z,15.83
